createdAt,value
2018-10-21T00:01:14.312Z,34.20
2018-10-21T00:03:43.279Z,39.93
2018-10-21T00:06:12.650Z,33.63
2018-10-21T00:08:42.804Z,33.30
2018-10-21T00:11:11.937Z,32.03
2018-10-21T00:13:41.130Z,39.27
2018-10-21T00:16:10.302Z,41.70
2018-10-21T00:18:39.466Z,37.13
2018-10-21T00:21:08.613Z,36.97
2018-10-21T00:23:37.587Z,38.90
2018-10-21T00:26:07.062Z,39.93
2018-10-21T00:28:36.000Z,37.50
2018-10-21T00:31:05.301Z,33.67
2018-10-21T00:33:34.303Z,31.67
2018-10-21T00:36:03.447Z,30.00
2018-10-21T00:38:32.446Z,29.80
2018-10-21T00:41:01.631Z,34.60
2018-10-21T00:43:30.762Z,31.20
2018-10-21T00:45:59.804Z,31.97
2018-10-21T00:48:28.771Z,36.57
2018-10-21T00:50:57.750Z,30.03
2018-10-21T00:53:26.804Z,37.03
2018-10-21T00:55:55.928Z,36.27
2018-10-21T00:58:24.942Z,46.50
2018-10-21T01:00:53.903Z,34.10
2018-10-21T01:03:22.928Z,35.37
2018-10-21T01:05:51.911Z,31.80
2018-10-21T01:08:20.918Z,33.73
2018-10-21T01:10:49.902Z,33.87
2018-10-21T01:13:19.621Z,32.13
2018-10-21T01:15:48.630Z,35.10
2018-10-21T01:18:17.851Z,37.30
2018-10-21T01:20:46.788Z,30.70
2018-10-21T01:23:15.754Z,41.17
2018-10-21T01:25:44.812Z,33.90
2018-10-21T01:28:16.090Z,29.70
2018-10-21T01:30:45.150Z,31.37
2018-10-21T01:33:14.414Z,39.10
2018-10-21T01:35:43.441Z,31.83
2018-10-21T01:38:12.522Z,34.93
2018-10-21T01:40:42.449Z,28.77
2018-10-21T01:43:13.005Z,32.70
2018-10-21T01:45:42.121Z,36.37
2018-10-21T01:48:12.400Z,30.50
2018-10-21T01:50:41.537Z,43.00
2018-10-21T01:53:12.431Z,44.07
2018-10-21T01:55:41.462Z,35.67
2018-10-21T01:58:10.493Z,30.40
2018-10-21T02:00:40.238Z,30.67
2018-10-21T02:03:09.211Z,33.37
2018-10-21T02:05:38.584Z,41.03
2018-10-21T02:08:07.626Z,35.90
2018-10-21T02:10:36.631Z,29.30
2018-10-21T02:13:05.608Z,32.17
2018-10-21T02:15:34.675Z,39.03
2018-10-21T02:18:03.984Z,36.40
2018-10-21T02:20:32.911Z,39.60
2018-10-21T02:23:02.067Z,37.67
2018-10-21T02:25:31.102Z,44.20
2018-10-21T02:28:00.277Z,40.17
2018-10-21T02:30:30.454Z,43.33
2018-10-21T02:33:00.354Z,38.20
2018-10-21T02:35:29.536Z,49.23
2018-10-21T02:37:58.780Z,42.00
2018-10-21T02:41:41.000Z,44.03
2018-10-21T02:44:11.524Z,37.90
2018-10-21T02:46:40.802Z,47.93
2018-10-21T02:49:10.712Z,36.63
2018-10-21T02:51:39.753Z,33.17
2018-10-21T02:54:09.112Z,41.17
2018-10-21T02:56:38.217Z,39.77
2018-10-21T02:59:07.384Z,49.77
2018-10-21T03:01:36.500Z,37.13
2018-10-21T03:04:05.493Z,34.50
2018-10-21T03:06:34.655Z,32.57
2018-10-21T03:09:05.404Z,40.77
2018-10-21T03:11:34.481Z,42.10
2018-10-21T03:14:04.325Z,44.87
2018-10-21T03:16:33.449Z,39.77
2018-10-21T03:19:02.437Z,35.67
2018-10-21T03:21:31.439Z,35.13
2018-10-21T03:24:00.459Z,39.90
2018-10-21T03:26:29.454Z,41.47
2018-10-21T03:28:58.496Z,31.30
2018-10-21T03:31:27.570Z,28.83
2018-10-21T03:33:56.762Z,32.03
2018-10-21T03:36:25.531Z,29.00
2018-10-21T03:38:54.543Z,34.33
2018-10-21T03:41:23.530Z,31.40
2018-10-21T03:43:52.747Z,34.80
2018-10-21T03:46:21.931Z,29.77
2018-10-21T03:48:51.021Z,36.63
2018-10-21T03:51:20.011Z,32.80
2018-10-21T03:53:49.015Z,37.43
2018-10-21T03:56:18.067Z,33.43
2018-10-21T03:58:47.028Z,33.80
2018-10-21T04:01:16.004Z,37.67
2018-10-21T04:03:45.055Z,34.70
2018-10-21T04:06:14.079Z,37.53
2018-10-21T04:08:43.042Z,34.40
2018-10-21T04:11:12.178Z,34.37
2018-10-21T04:13:41.144Z,34.87
2018-10-21T04:16:10.252Z,32.83
2018-10-21T04:18:39.153Z,34.90
2018-10-21T04:21:08.338Z,35.10
2018-10-21T04:23:37.360Z,36.37
2018-10-21T04:26:07.439Z,43.70
2018-10-21T04:28:36.500Z,40.00
2018-10-21T04:31:05.598Z,43.53
2018-10-21T04:33:42.732Z,35.97
2018-10-21T04:36:13.547Z,45.17
2018-10-21T04:38:54.098Z,39.57
2018-10-21T04:41:23.139Z,36.77
2018-10-21T04:43:52.124Z,41.07
2018-10-21T04:46:21.118Z,42.20
2018-10-21T04:48:50.107Z,36.00
2018-10-21T04:51:19.121Z,34.03
2018-10-21T04:53:48.226Z,41.63
2018-10-21T04:56:17.197Z,37.87
2018-10-21T04:58:46.194Z,37.13
2018-10-21T05:01:15.277Z,34.17
2018-10-21T05:03:44.257Z,36.37
2018-10-21T05:06:13.289Z,43.77
2018-10-21T05:08:42.416Z,39.63
2018-10-21T05:11:11.424Z,37.10
2018-10-21T05:13:40.381Z,36.73
2018-10-21T05:16:09.452Z,42.80
2018-10-21T05:18:39.183Z,38.03
2018-10-21T05:21:08.357Z,34.07
2018-10-21T05:23:37.329Z,35.50
2018-10-21T05:26:06.331Z,38.30
2018-10-21T05:28:35.302Z,44.73
2018-10-21T05:31:04.269Z,33.67
2018-10-21T05:33:33.246Z,35.60
2018-10-21T05:36:02.565Z,47.27
2018-10-21T05:38:31.803Z,42.20
2018-10-21T05:41:00.786Z,44.23
2018-10-21T05:43:29.948Z,44.90
2018-10-21T05:45:59.319Z,48.33
2018-10-21T05:48:28.281Z,52.27
2018-10-21T05:50:57.319Z,52.83
2018-10-21T05:53:26.288Z,59.70
2018-10-21T05:55:55.282Z,59.73
2018-10-21T05:58:24.355Z,67.70
2018-10-21T06:00:53.258Z,71.40
2018-10-21T06:03:22.214Z,69.87
2018-10-21T06:05:51.220Z,71.83
2018-10-21T06:08:20.323Z,60.67
2018-10-21T06:10:50.462Z,58.50
2018-10-21T06:13:19.486Z,55.10
2018-10-21T06:15:48.555Z,61.50
2018-10-21T06:18:20.806Z,57.97
2018-10-21T06:20:51.570Z,79.97
2018-10-21T06:23:20.522Z,65.47
2018-10-21T06:25:49.469Z,49.57
2018-10-21T06:28:18.497Z,47.90
2018-10-21T06:30:47.596Z,54.40
2018-10-21T06:33:16.792Z,51.97
2018-10-21T06:35:45.766Z,50.83
2018-10-21T06:38:14.727Z,52.17
2018-10-21T06:40:43.871Z,44.97
2018-10-21T06:43:12.948Z,50.10
2018-10-21T06:45:42.260Z,48.73
2018-10-21T06:48:11.153Z,52.20
2018-10-21T06:50:40.201Z,61.53
2018-10-21T06:53:09.550Z,69.80
2018-10-21T06:55:38.474Z,66.17
2018-10-21T06:58:07.489Z,63.20
2018-10-21T07:00:36.572Z,64.00
2018-10-21T07:03:05.734Z,65.73
2018-10-21T07:06:17.423Z,72.17
2018-10-21T07:08:46.974Z,68.37
2018-10-21T07:11:16.107Z,70.13
2018-10-21T07:13:45.189Z,66.67
2018-10-21T07:16:14.489Z,65.07
2018-10-21T07:18:44.253Z,59.63
2018-10-21T07:21:13.580Z,59.03
2018-10-21T07:23:42.820Z,55.93
2018-10-21T07:26:11.801Z,56.23
2018-10-21T07:28:40.808Z,62.20
2018-10-21T07:31:09.798Z,53.77
2018-10-21T07:33:38.969Z,51.03
2018-10-21T07:36:08.144Z,49.83
2018-10-21T07:38:37.280Z,58.57
2018-10-21T07:41:06.469Z,52.93
2018-10-21T07:43:35.489Z,66.27
2018-10-21T07:46:04.776Z,58.80
2018-10-21T07:48:33.698Z,59.30
2018-10-21T07:51:02.805Z,56.83
2018-10-21T07:53:31.881Z,56.77
2018-10-21T07:56:01.008Z,66.20
2018-10-21T07:58:30.081Z,58.90
2018-10-21T08:00:59.399Z,59.00
2018-10-21T08:03:29.154Z,62.70
2018-10-21T08:06:25.531Z,54.63
2018-10-21T08:08:54.664Z,68.40
2018-10-21T08:11:23.614Z,57.80
2018-10-21T08:13:52.711Z,55.77
2018-10-21T08:16:22.238Z,55.00
2018-10-21T08:18:51.951Z,57.77
2018-10-21T08:21:20.981Z,67.80
2018-10-21T08:23:49.877Z,64.60
2018-10-21T08:26:18.886Z,66.53
2018-10-21T08:28:48.911Z,58.17
2018-10-21T08:31:18.010Z,62.90
2018-10-21T08:33:46.989Z,53.83
2018-10-21T08:36:16.463Z,58.07
2018-10-21T08:38:45.474Z,54.87
2018-10-21T08:41:14.446Z,52.53
2018-10-21T08:43:43.483Z,66.70
2018-10-21T08:46:12.566Z,63.10
2018-10-21T08:48:41.560Z,51.33
2018-10-21T08:51:10.594Z,55.43
2018-10-21T08:53:39.602Z,52.67
2018-10-21T08:56:08.663Z,59.20
2018-10-21T08:58:37.734Z,55.17
2018-10-21T09:01:06.758Z,57.27
2018-10-21T09:03:35.926Z,54.20
2018-10-21T09:06:04.922Z,54.80
2018-10-21T09:08:33.914Z,45.10
2018-10-21T09:11:02.980Z,50.77
2018-10-21T09:13:31.893Z,52.63
2018-10-21T09:16:00.955Z,60.27
2018-10-21T09:18:29.954Z,51.77
2018-10-21T09:20:58.956Z,52.00
2018-10-21T09:23:27.918Z,46.90
2018-10-21T09:25:57.067Z,52.00
2018-10-21T09:28:26.092Z,59.27
2018-10-21T09:30:55.280Z,46.17
2018-10-21T09:33:24.334Z,43.13
2018-10-21T09:35:53.326Z,50.83
2018-10-21T09:38:22.435Z,46.07
2018-10-21T09:40:51.402Z,50.10
2018-10-21T09:43:20.566Z,52.47
2018-10-21T09:45:49.656Z,64.83
2018-10-21T09:48:18.622Z,51.27
2018-10-21T09:50:47.658Z,49.37
2018-10-21T09:53:16.792Z,97.30
2018-10-21T09:55:45.826Z,86.40
2018-10-21T09:58:14.997Z,63.00
2018-10-21T10:00:49.254Z,49.77
2018-10-21T10:03:18.713Z,45.37
2018-10-21T10:05:47.764Z,74.90
2018-10-21T10:08:16.870Z,47.80
2018-10-21T10:10:46.006Z,50.33
2018-10-21T10:13:15.064Z,49.20
2018-10-21T10:15:44.042Z,41.63
2018-10-21T10:18:13.151Z,45.60
2018-10-21T10:20:42.489Z,36.10
2018-10-21T10:23:11.532Z,40.43
2018-10-21T10:25:40.530Z,50.47
2018-10-21T10:28:09.743Z,51.30
2018-10-21T10:30:38.928Z,48.07
2018-10-21T10:33:07.923Z,111.50
2018-10-21T10:35:37.067Z,36.20
2018-10-21T10:38:06.129Z,36.37
2018-10-21T10:40:35.126Z,29.77
2018-10-21T10:43:04.238Z,31.43
2018-10-21T10:45:33.249Z,36.83
2018-10-21T10:48:02.282Z,37.83
2018-10-21T10:50:31.398Z,35.50
2018-10-21T10:53:00.720Z,31.87
2018-10-21T10:55:34.999Z,35.60
2018-10-21T10:58:04.406Z,37.77
2018-10-21T11:00:33.419Z,42.23
2018-10-21T11:03:02.739Z,34.00
2018-10-21T11:05:31.883Z,34.97
2018-10-21T11:08:00.850Z,46.93
2018-10-21T11:10:29.843Z,42.53
2018-10-21T11:12:59.094Z,42.10
2018-10-21T11:15:28.129Z,40.67
2018-10-21T11:17:57.449Z,41.20
2018-10-21T11:20:27.663Z,34.83
2018-10-21T11:22:56.837Z,35.63
2018-10-21T11:25:27.428Z,48.80
2018-10-21T11:27:56.698Z,32.67
2018-10-21T11:30:25.766Z,51.20
2018-10-21T11:32:55.144Z,30.40
2018-10-21T11:35:24.301Z,35.33
2018-10-21T11:37:53.587Z,28.27
2018-10-21T11:40:22.642Z,38.13
2018-10-21T11:42:51.942Z,27.87
2018-10-21T11:45:21.006Z,30.10
2018-10-21T11:47:50.229Z,29.63
2018-10-21T11:50:19.277Z,28.83
2018-10-21T11:52:48.289Z,26.33
2018-10-21T11:55:17.508Z,24.07
2018-10-21T11:57:46.777Z,28.00
2018-10-21T12:00:15.923Z,22.53
2018-10-21T12:02:45.361Z,25.07
2018-10-21T12:05:14.455Z,17.23
2018-10-21T12:07:43.489Z,22.70
2018-10-21T12:10:12.597Z,24.97
2018-10-21T12:12:41.657Z,28.00
2018-10-21T12:15:10.942Z,23.53
2018-10-21T12:17:40.052Z,26.63
2018-10-21T12:20:09.130Z,25.33
2018-10-21T12:22:38.310Z,21.17
2018-10-21T12:25:07.581Z,21.40
2018-10-21T12:27:36.850Z,19.80
2018-10-21T12:30:07.423Z,20.53
2018-10-21T12:32:36.842Z,29.10
2018-10-21T12:35:08.091Z,24.43
2018-10-21T12:37:37.400Z,19.77
2018-10-21T12:40:07.589Z,21.20
2018-10-21T12:42:36.726Z,27.17
2018-10-21T12:45:07.568Z,19.73
2018-10-21T12:47:36.807Z,21.60
2018-10-21T12:50:06.437Z,26.70
2018-10-21T12:52:35.490Z,22.33
2018-10-21T12:55:05.469Z,17.83
2018-10-21T13:00:10.250Z,21.20
2018-10-21T13:02:39.314Z,31.43
2018-10-21T13:05:08.658Z,22.80
2018-10-21T13:07:37.691Z,28.13
2018-10-21T13:10:06.965Z,31.03
2018-10-21T13:12:36.031Z,43.27
2018-10-21T13:15:05.710Z,23.33
2018-10-21T13:17:34.694Z,22.47
2018-10-21T13:20:03.799Z,16.70
2018-10-21T13:22:32.810Z,24.50
2018-10-21T13:25:01.914Z,18.20
2018-10-21T13:27:31.037Z,18.23
2018-10-21T13:30:00.242Z,19.93
2018-10-21T13:32:29.521Z,22.73
2018-10-21T13:35:01.354Z,24.73
2018-10-21T13:37:30.447Z,20.40
2018-10-21T13:39:59.571Z,19.73
2018-10-21T13:42:28.499Z,15.87
2018-10-21T13:44:58.571Z,21.43
2018-10-21T13:47:27.993Z,18.07
2018-10-21T13:49:57.005Z,30.90
2018-10-21T13:52:26.268Z,14.93
2018-10-21T13:54:55.399Z,22.70
2018-10-21T13:57:24.469Z,24.63
2018-10-21T13:59:53.474Z,16.33
2018-10-21T14:02:22.548Z,18.67
2018-10-21T14:04:52.369Z,17.37
2018-10-21T14:07:21.727Z,15.57
2018-10-21T14:09:50.701Z,15.87
2018-10-21T14:12:19.849Z,15.20
2018-10-21T14:14:48.979Z,17.50
2018-10-21T14:17:17.975Z,16.23
2018-10-21T14:19:47.042Z,13.50
2018-10-21T14:22:16.434Z,16.23
2018-10-21T14:24:45.633Z,15.73
2018-10-21T14:27:14.445Z,11.10
2018-10-21T14:29:44.287Z,13.33
2018-10-21T14:32:13.392Z,26.30
2018-10-21T14:34:42.502Z,14.60
2018-10-21T14:37:11.661Z,11.40
2018-10-21T14:39:40.690Z,10.93
2018-10-21T14:42:09.870Z,11.53
2018-10-21T14:44:38.821Z,12.43
2018-10-21T14:47:08.234Z,13.50
2018-10-21T14:49:37.234Z,14.13
2018-10-21T14:52:06.325Z,10.63
2018-10-21T14:54:35.357Z,12.73
2018-10-21T14:57:04.490Z,13.73
2018-10-21T14:59:33.661Z,12.13
2018-10-21T15:02:02.777Z,8.40
2018-10-21T15:04:31.723Z,13.33
2018-10-21T15:07:00.688Z,12.77
2018-10-21T15:09:29.710Z,7.17
2018-10-21T15:11:59.806Z,9.00
2018-10-21T15:14:28.812Z,19.87
2018-10-21T15:16:57.802Z,11.93
2018-10-21T15:19:26.951Z,15.57
2018-10-21T15:21:56.092Z,23.03
2018-10-21T15:24:25.257Z,9.90
2018-10-21T15:26:54.386Z,9.30
2018-10-21T15:29:23.386Z,10.97
2018-10-21T15:31:52.720Z,8.37
2018-10-21T15:34:21.862Z,38.03
2018-10-21T15:36:50.874Z,13.90
2018-10-21T15:39:19.929Z,14.67
2018-10-21T15:41:49.519Z,8.13
2018-10-21T15:44:18.658Z,8.80
2018-10-21T15:46:47.547Z,7.57
2018-10-21T15:49:16.601Z,8.87
2018-10-21T15:51:45.872Z,7.37
2018-10-21T15:54:15.057Z,14.47
2018-10-21T15:56:44.406Z,9.40
2018-10-21T15:59:13.526Z,12.77
2018-10-21T16:01:43.759Z,16.57
2018-10-21T16:04:12.855Z,15.27
2018-10-21T16:06:41.964Z,19.77
2018-10-21T16:09:12.755Z,16.53
2018-10-21T16:11:42.102Z,16.67
2018-10-21T16:14:11.166Z,5.30
2018-10-21T16:16:40.324Z,12.23
2018-10-21T16:19:09.534Z,11.50
2018-10-21T16:21:38.936Z,11.07
2018-10-21T16:24:07.954Z,7.90
2018-10-21T16:26:37.054Z,11.33
2018-10-21T16:29:06.350Z,8.00
2018-10-21T16:31:35.504Z,6.63
2018-10-21T16:34:04.894Z,15.77
2018-10-21T16:36:33.967Z,7.53
2018-10-21T16:39:03.256Z,13.43
2018-10-21T16:41:34.273Z,6.03
2018-10-21T16:44:03.388Z,7.27
2018-10-21T16:46:32.453Z,13.93
2018-10-21T16:49:01.535Z,8.37
2018-10-21T16:51:30.615Z,9.57
2018-10-21T16:53:59.753Z,6.60
2018-10-21T16:56:28.712Z,11.97
2018-10-21T16:58:57.787Z,13.23
2018-10-21T17:01:26.832Z,9.33
2018-10-21T17:03:56.014Z,25.53
2018-10-21T17:06:25.011Z,20.93
2018-10-21T17:08:54.056Z,23.57
2018-10-21T17:11:23.198Z,19.70
2018-10-21T17:13:52.303Z,12.27
2018-10-21T17:16:21.487Z,18.97
2018-10-21T17:18:50.485Z,12.50
2018-10-21T17:21:19.438Z,13.93
2018-10-21T17:23:48.447Z,8.87
2018-10-21T17:26:18.575Z,13.00
2018-10-21T17:28:47.590Z,14.63
2018-10-21T17:31:16.827Z,8.90
2018-10-21T17:33:45.784Z,9.40
2018-10-21T17:36:14.767Z,10.13
2018-10-21T17:38:43.932Z,11.17
2018-10-21T17:41:12.975Z,7.90
2018-10-21T17:43:42.110Z,14.27
2018-10-21T17:46:11.186Z,13.10
2018-10-21T17:48:41.289Z,9.07
2018-10-21T17:51:10.469Z,12.20
2018-10-21T17:53:39.437Z,12.10
2018-10-21T17:56:08.575Z,15.30
2018-10-21T17:58:37.806Z,12.50
2018-10-21T18:01:06.880Z,11.93
2018-10-21T18:03:36.055Z,8.70
2018-10-21T18:06:04.994Z,11.53
2018-10-21T18:08:34.007Z,13.90
2018-10-21T18:11:03.296Z,13.00
2018-10-21T18:13:32.410Z,8.00
2018-10-21T18:16:01.466Z,10.13
2018-10-21T18:18:30.419Z,7.47
2018-10-21T18:20:59.398Z,11.60
2018-10-21T18:23:28.443Z,10.37
2018-10-21T18:25:57.485Z,9.20
2018-10-21T18:28:26.555Z,15.77
2018-10-21T18:30:55.661Z,13.87
2018-10-21T18:33:24.710Z,15.03
2018-10-21T18:35:53.841Z,16.10
2018-10-21T18:38:22.949Z,11.80
2018-10-21T18:40:52.413Z,22.43
2018-10-21T18:43:22.374Z,39.40
2018-10-21T18:45:51.640Z,17.17
2018-10-21T18:48:20.606Z,15.07
2018-10-21T18:50:49.555Z,18.57
2018-10-21T18:53:18.556Z,11.03
2018-10-21T18:55:47.597Z,9.30
2018-10-21T18:58:16.708Z,17.73
2018-10-21T19:00:45.705Z,12.63
2018-10-21T19:03:14.750Z,12.37
2018-10-21T19:05:43.743Z,10.87
2018-10-21T19:08:12.807Z,13.00
2018-10-21T19:10:41.899Z,19.00
2018-10-21T19:13:10.874Z,15.00
2018-10-21T19:15:39.830Z,12.83
2018-10-21T19:18:08.879Z,18.90
2018-10-21T19:20:38.067Z,15.77
2018-10-21T19:23:07.266Z,18.37
2018-10-21T19:25:36.306Z,15.90
2018-10-21T19:28:05.424Z,15.57
2018-10-21T19:30:34.482Z,11.87
2018-10-21T19:33:03.710Z,16.10
2018-10-21T19:35:33.046Z,15.00
2018-10-21T19:38:02.173Z,27.83
2018-10-21T19:40:31.150Z,9.80
2018-10-21T19:43:00.296Z,16.13
2018-10-21T19:45:29.307Z,12.90
2018-10-21T19:47:58.363Z,12.60
2018-10-21T19:50:27.314Z,9.30
2018-10-21T19:52:56.504Z,11.07
2018-10-21T19:55:25.464Z,13.43
2018-10-21T19:57:54.478Z,13.20
2018-10-21T20:00:23.445Z,13.40
2018-10-21T20:02:53.798Z,13.67
2018-10-21T20:05:22.944Z,11.50
2018-10-21T20:07:51.933Z,14.40
2018-10-21T20:10:20.933Z,13.00
2018-10-21T20:12:49.856Z,13.40
2018-10-21T20:15:18.806Z,12.37
2018-10-21T20:17:47.874Z,13.17
2018-10-21T20:20:16.982Z,17.00
2018-10-21T20:22:46.181Z,17.80
2018-10-21T20:25:15.270Z,13.40
2018-10-21T20:27:44.287Z,11.17
2018-10-21T20:30:14.169Z,17.50
2018-10-21T20:32:43.803Z,19.43
2018-10-21T20:35:12.973Z,22.53
2018-10-21T20:37:42.083Z,14.33
2018-10-21T20:40:11.451Z,12.70
2018-10-21T20:42:40.377Z,12.67
2018-10-21T20:45:11.708Z,18.57
2018-10-21T20:47:41.898Z,25.97
2018-10-21T20:50:10.851Z,17.23
2018-10-21T20:52:39.770Z,17.63
2018-10-21T20:55:08.740Z,14.03
2018-10-21T20:57:37.774Z,14.87
2018-10-21T21:00:06.836Z,15.80
2018-10-21T21:02:36.033Z,17.13
2018-10-21T21:05:06.482Z,17.07
2018-10-21T21:07:35.682Z,14.87
2018-10-21T21:10:05.778Z,17.10
2018-10-21T21:12:34.717Z,18.20
2018-10-21T21:15:03.728Z,20.00
2018-10-21T21:17:32.783Z,24.80
2018-10-21T21:20:01.755Z,19.90
2018-10-21T21:22:32.048Z,23.93
2018-10-21T21:25:01.011Z,23.80
2018-10-21T21:27:30.143Z,20.53
2018-10-21T21:29:59.089Z,15.73
2018-10-21T21:32:28.414Z,23.03
2018-10-21T21:34:57.374Z,19.13
2018-10-21T21:37:26.373Z,17.80
2018-10-21T21:39:55.378Z,16.27
2018-10-21T21:42:24.344Z,23.47
2018-10-21T21:44:53.439Z,16.10
2018-10-21T21:47:22.692Z,16.90
2018-10-21T21:49:51.627Z,15.50
2018-10-21T21:52:21.796Z,11.40
2018-10-21T21:54:50.744Z,14.07
2018-10-21T21:57:19.709Z,22.97
2018-10-21T21:59:48.645Z,22.00
2018-10-21T22:02:17.682Z,13.37
2018-10-21T22:04:46.628Z,19.23
2018-10-21T22:07:15.605Z,17.43
2018-10-21T22:09:44.574Z,20.50
2018-10-21T22:12:13.557Z,16.70
2018-10-21T22:14:42.545Z,21.10
2018-10-21T22:17:11.574Z,21.53
2018-10-21T22:19:41.725Z,18.73
2018-10-21T22:22:10.807Z,18.90
2018-10-21T22:24:39.719Z,16.70
2018-10-21T22:27:08.766Z,20.40
2018-10-21T22:29:37.703Z,14.47
2018-10-21T22:32:06.797Z,16.50
2018-10-21T22:34:35.739Z,18.57
2018-10-21T22:37:05.094Z,16.73
2018-10-21T22:39:34.043Z,22.27
2018-10-21T22:42:03.212Z,18.23
2018-10-21T22:44:32.133Z,14.40
2018-10-21T22:47:01.109Z,17.33
2018-10-21T22:49:30.426Z,17.43
2018-10-21T22:51:59.714Z,11.43
2018-10-21T22:54:28.674Z,17.17
2018-10-21T22:56:57.946Z,13.90
2018-10-21T22:59:26.947Z,15.00
2018-10-21T23:01:55.961Z,14.13
2018-10-21T23:04:24.972Z,14.20
2018-10-21T23:06:53.945Z,15.60
2018-10-21T23:09:22.947Z,16.10
2018-10-21T23:11:52.170Z,14.93
2018-10-21T23:14:21.161Z,14.93
2018-10-21T23:16:50.281Z,15.50
2018-10-21T23:19:30.950Z,12.70
2018-10-21T23:22:00.109Z,19.17
2018-10-21T23:24:29.114Z,15.63
2018-10-21T23:26:58.294Z,12.53
2018-10-21T23:29:27.238Z,12.47
2018-10-21T23:31:56.254Z,13.73
2018-10-21T23:34:25.835Z,13.73
2018-10-21T23:36:55.362Z,14.00
2018-10-21T23:39:24.639Z,17.40
2018-10-21T23:41:53.995Z,18.40
2018-10-21T23:44:22.898Z,13.73
2018-10-21T23:46:52.130Z,15.10
2018-10-21T23:49:21.107Z,16.73
2018-10-21T23:51:50.218Z,17.50
2018-10-21T23:54:19.326Z,16.13
2018-10-21T23:56:48.406Z,14.93
2018-10-21T23:59:17.521Z,14.70
